sensor_id;sensor_type;location;lat;lon;timestamp;temperature;humidity
32865;DHT22;19219;44.500;11.188;2022-09-09T00:04:31;21.40;99.90
32865;DHT22;19219;44.500;11.188;2022-09-09T00:07:10;21.30;99.90
32865;DHT22;19219;44.500;11.188;2022-09-09T00:15:25;20.90;99.90
32865;DHT22;19219;44.500;11.188;2022-09-09T00:18:01;20.70;99.90
32865;DHT22;19219;44.500;11.188;2022-09-09T00:21:05;20.60;99.90
32865;DHT22;19219;44.500;11.188;2022-09-09T00:23:38;20.70;99.90
32865;DHT22;19219;44.500;11.188;2022-09-09T00:31:27;20.70;99.90
32865;DHT22;19219;44.500;11.188;2022-09-09T00:33:53;20.70;99.90
32865;DHT22;19219;44.500;11.188;2022-09-09T00:36:23;20.60;99.90
32865;DHT22;19219;44.500;11.188;2022-09-09T00:38:57;20.50;99.90
32865;DHT22;19219;44.500;11.188;2022-09-09T00:41:40;20.30;99.90
32865;DHT22;19219;44.500;11.188;2022-09-09T00:44:31;20.30;99.90
32865;DHT22;19219;44.500;11.188;2022-09-09T00:47:12;20.20;99.90
32865;DHT22;19219;44.500;11.188;2022-09-09T00:49:58;20.20;99.90
32865;DHT22;19219;44.500;11.188;2022-09-09T00:52:35;20.20;99.90
32865;DHT22;19219;44.500;11.188;2022-09-09T00:55:26;20.10;99.90
32865;DHT22;19219;44.500;11.188;2022-09-09T00:57:53;20.10;99.90
32865;DHT22;19219;44.500;11.188;2022-09-09T01:05:33;19.80;99.90
32865;DHT22;19219;44.500;11.188;2022-09-09T01:08:03;19.80;99.90
32865;DHT22;19219;44.500;11.188;2022-09-09T01:10:43;19.80;99.90
32865;DHT22;19219;44.500;11.188;2022-09-09T01:13:22;19.80;99.90
32865;DHT22;19219;44.500;11.188;2022-09-09T01:15:49;19.80;99.90
32865;DHT22;19219;44.500;11.188;2022-09-09T01:18:20;19.80;99.90
32865;DHT22;19219;44.500;11.188;2022-09-09T01:20:58;19.80;99.90
32865;DHT22;19219;44.500;11.188;2022-09-09T01:26:21;19.80;99.90
32865;DHT22;19219;44.500;11.188;2022-09-09T01:28:49;19.80;99.90
32865;DHT22;19219;44.500;11.188;2022-09-09T01:31:21;19.80;99.90
32865;DHT22;19219;44.500;11.188;2022-09-09T01:33:48;19.80;99.90
32865;DHT22;19219;44.500;11.188;2022-09-09T01:36:21;19.70;99.90
32865;DHT22;19219;44.500;11.188;2022-09-09T01:38:50;19.70;99.90
32865;DHT22;19219;44.500;11.188;2022-09-09T01:41:15;19.70;99.90
32865;DHT22;19219;44.500;11.188;2022-09-09T01:43:41;19.70;99.90
32865;DHT22;19219;44.500;11.188;2022-09-09T01:46:07;19.60;99.90
32865;DHT22;19219;44.500;11.188;2022-09-09T01:48:33;19.50;99.90
32865;DHT22;19219;44.500;11.188;2022-09-09T01:50:59;19.60;99.90
32865;DHT22;19219;44.500;11.188;2022-09-09T01:53:25;19.60;99.90
32865;DHT22;19219;44.500;11.188;2022-09-09T02:01:42;19.10;99.90
32865;DHT22;19219;44.500;11.188;2022-09-09T02:07:00;18.80;99.90
32865;DHT22;19219;44.500;11.188;2022-09-09T02:09:26;18.70;99.90
32865;DHT22;19219;44.500;11.188;2022-09-09T02:12:03;18.60;99.90
32865;DHT22;19219;44.500;11.188;2022-09-09T02:14:36;18.70;99.90
32865;DHT22;19219;44.500;11.188;2022-09-09T02:17:16;18.70;99.90
32865;DHT22;19219;44.500;11.188;2022-09-09T02:19:51;18.60;99.90
32865;DHT22;19219;44.500;11.188;2022-09-09T02:22:22;18.70;99.90
32865;DHT22;19219;44.500;11.188;2022-09-09T02:24:50;18.60;99.90
32865;DHT22;19219;44.500;11.188;2022-09-09T02:27:20;18.60;99.90
32865;DHT22;19219;44.500;11.188;2022-09-09T02:29:49;18.60;99.90
32865;DHT22;19219;44.500;11.188;2022-09-09T02:32:20;18.60;99.90
32865;DHT22;19219;44.500;11.188;2022-09-09T02:34:53;18.60;99.90
32865;DHT22;19219;44.500;11.188;2022-09-09T02:37:24;18.60;99.90
32865;DHT22;19219;44.500;11.188;2022-09-09T02:39:54;18.60;99.90
32865;DHT22;19219;44.500;11.188;2022-09-09T02:42:20;18.60;99.90
32865;DHT22;19219;44.500;11.188;2022-09-09T02:44:46;18.50;99.90
32865;DHT22;19219;44.500;11.188;2022-09-09T02:49:57;18.40;99.90
32865;DHT22;19219;44.500;11.188;2022-09-09T02:53:00;18.30;99.90
32865;DHT22;19219;44.500;11.188;2022-09-09T02:55:46;18.20;99.90
32865;DHT22;19219;44.500;11.188;2022-09-09T02:58:16;18.20;99.90
32865;DHT22;19219;44.500;11.188;2022-09-09T03:00:45;18.20;99.90
32865;DHT22;19219;44.500;11.188;2022-09-09T03:03:11;18.30;99.90
32865;DHT22;19219;44.500;11.188;2022-09-09T03:05:37;18.30;99.90
32865;DHT22;19219;44.500;11.188;2022-09-09T03:08:04;18.30;99.90
32865;DHT22;19219;44.500;11.188;2022-09-09T03:10:31;18.30;99.90
32865;DHT22;19219;44.500;11.188;2022-09-09T03:12:57;18.20;99.90
32865;DHT22;19219;44.500;11.188;2022-09-09T03:15:23;18.20;99.90
32865;DHT22;19219;44.500;11.188;2022-09-09T03:17:48;18.10;99.90
32865;DHT22;19219;44.500;11.188;2022-09-09T03:20:14;18.20;99.90
32865;DHT22;19219;44.500;11.188;2022-09-09T03:22:40;18.10;99.90
32865;DHT22;19219;44.500;11.188;2022-09-09T03:25:06;18.20;99.90
32865;DHT22;19219;44.500;11.188;2022-09-09T03:27:32;18.10;99.90
32865;DHT22;19219;44.500;11.188;2022-09-09T03:29:58;18.10;99.90
32865;DHT22;19219;44.500;11.188;2022-09-09T03:32:24;17.90;99.90
32865;DHT22;19219;44.500;11.188;2022-09-09T03:34:51;17.80;99.90
32865;DHT22;19219;44.500;11.188;2022-09-09T03:37:18;17.90;99.90
32865;DHT22;19219;44.500;11.188;2022-09-09T03:39:44;17.90;99.90
32865;DHT22;19219;44.500;11.188;2022-09-09T03:42:12;17.80;99.90
32865;DHT22;19219;44.500;11.188;2022-09-09T03:44:40;17.80;99.90
32865;DHT22;19219;44.500;11.188;2022-09-09T03:47:07;17.90;99.90
32865;DHT22;19219;44.500;11.188;2022-09-09T03:49:33;18.00;99.90
32865;DHT22;19219;44.500;11.188;2022-09-09T03:51:59;17.90;99.90
32865;DHT22;19219;44.500;11.188;2022-09-09T03:54:26;17.80;99.90
32865;DHT22;19219;44.500;11.188;2022-09-09T03:56:52;17.90;99.90
32865;DHT22;19219;44.500;11.188;2022-09-09T03:59:18;17.90;99.90
32865;DHT22;19219;44.500;11.188;2022-09-09T04:01:44;17.90;99.90
32865;DHT22;19219;44.500;11.188;2022-09-09T04:04:10;17.90;99.90
32865;DHT22;19219;44.500;11.188;2022-09-09T04:06:37;17.90;99.90
32865;DHT22;19219;44.500;11.188;2022-09-09T04:09:03;17.90;99.90
32865;DHT22;19219;44.500;11.188;2022-09-09T04:11:29;17.90;99.90
32865;DHT22;19219;44.500;11.188;2022-09-09T04:13:55;17.80;99.90
32865;DHT22;19219;44.500;11.188;2022-09-09T04:16:20;17.70;99.90
32865;DHT22;19219;44.500;11.188;2022-09-09T04:18:46;17.70;99.90
32865;DHT22;19219;44.500;11.188;2022-09-09T04:21:12;17.60;99.90
32865;DHT22;19219;44.500;11.188;2022-09-09T04:23:38;17.60;99.90
32865;DHT22;19219;44.500;11.188;2022-09-09T04:26:05;17.60;99.90
32865;DHT22;19219;44.500;11.188;2022-09-09T04:28:33;17.60;99.90
32865;DHT22;19219;44.500;11.188;2022-09-09T04:31:07;17.60;99.90
32865;DHT22;19219;44.500;11.188;2022-09-09T04:33:33;17.60;99.90
32865;DHT22;19219;44.500;11.188;2022-09-09T04:35:58;17.60;99.90
32865;DHT22;19219;44.500;11.188;2022-09-09T04:38:25;17.60;99.90
32865;DHT22;19219;44.500;11.188;2022-09-09T04:40:52;17.60;99.90
32865;DHT22;19219;44.500;11.188;2022-09-09T04:43:19;17.50;99.90
32865;DHT22;19219;44.500;11.188;2022-09-09T04:45:49;17.50;99.90
32865;DHT22;19219;44.500;11.188;2022-09-09T04:48:16;17.50;99.90
32865;DHT22;19219;44.500;11.188;2022-09-09T04:50:42;17.50;99.90
32865;DHT22;19219;44.500;11.188;2022-09-09T04:53:08;17.50;99.90
32865;DHT22;19219;44.500;11.188;2022-09-09T04:55:35;17.50;99.90
32865;DHT22;19219;44.500;11.188;2022-09-09T04:58:04;17.60;99.90
32865;DHT22;19219;44.500;11.188;2022-09-09T05:00:31;17.60;99.90
32865;DHT22;19219;44.500;11.188;2022-09-09T05:02:56;17.60;99.90
32865;DHT22;19219;44.500;11.188;2022-09-09T05:05:22;17.60;99.90
32865;DHT22;19219;44.500;11.188;2022-09-09T05:07:48;17.50;99.90
32865;DHT22;19219;44.500;11.188;2022-09-09T05:10:14;17.60;99.90
32865;DHT22;19219;44.500;11.188;2022-09-09T05:12:42;17.50;99.90
32865;DHT22;19219;44.500;11.188;2022-09-09T05:15:08;17.40;99.90
32865;DHT22;19219;44.500;11.188;2022-09-09T05:17:35;17.40;99.90
32865;DHT22;19219;44.500;11.188;2022-09-09T05:20:01;17.40;99.90
32865;DHT22;19219;44.500;11.188;2022-09-09T05:22:28;17.60;99.90
32865;DHT22;19219;44.500;11.188;2022-09-09T05:24:54;17.50;99.90
32865;DHT22;19219;44.500;11.188;2022-09-09T05:27:19;17.60;99.90
32865;DHT22;19219;44.500;11.188;2022-09-09T05:29:46;17.60;99.90
32865;DHT22;19219;44.500;11.188;2022-09-09T05:32:12;17.60;99.90
32865;DHT22;19219;44.500;11.188;2022-09-09T05:34:39;17.70;99.90
32865;DHT22;19219;44.500;11.188;2022-09-09T05:37:05;17.70;99.90
32865;DHT22;19219;44.500;11.188;2022-09-09T05:39:30;17.90;99.90
32865;DHT22;19219;44.500;11.188;2022-09-09T05:41:56;18.00;99.90
32865;DHT22;19219;44.500;11.188;2022-09-09T05:44:22;18.10;99.90
32865;DHT22;19219;44.500;11.188;2022-09-09T05:46:50;18.20;99.90
32865;DHT22;19219;44.500;11.188;2022-09-09T05:49:16;18.30;99.90
32865;DHT22;19219;44.500;11.188;2022-09-09T05:51:41;18.30;99.90
32865;DHT22;19219;44.500;11.188;2022-09-09T05:54:08;18.50;99.90
32865;DHT22;19219;44.500;11.188;2022-09-09T05:56:34;18.70;99.90
32865;DHT22;19219;44.500;11.188;2022-09-09T05:59:00;18.80;99.90
32865;DHT22;19219;44.500;11.188;2022-09-09T06:01:32;18.90;99.90
32865;DHT22;19219;44.500;11.188;2022-09-09T06:03:58;19.20;99.90
32865;DHT22;19219;44.500;11.188;2022-09-09T06:06:25;19.30;99.90
32865;DHT22;19219;44.500;11.188;2022-09-09T06:08:53;19.40;99.90
32865;DHT22;19219;44.500;11.188;2022-09-09T06:11:22;19.60;99.90
32865;DHT22;19219;44.500;11.188;2022-09-09T06:13:48;19.90;99.90
32865;DHT22;19219;44.500;11.188;2022-09-09T06:16:18;20.30;99.90
32865;DHT22;19219;44.500;11.188;2022-09-09T06:18:44;20.60;99.90
32865;DHT22;19219;44.500;11.188;2022-09-09T06:21:35;20.90;99.90
32865;DHT22;19219;44.500;11.188;2022-09-09T06:24:02;21.20;99.90
32865;DHT22;19219;44.500;11.188;2022-09-09T06:26:31;21.60;99.90
32865;DHT22;19219;44.500;11.188;2022-09-09T06:28:58;22.00;99.90
32865;DHT22;19219;44.500;11.188;2022-09-09T06:31:26;22.20;99.90
32865;DHT22;19219;44.500;11.188;2022-09-09T06:33:53;22.50;99.90
32865;DHT22;19219;44.500;11.188;2022-09-09T06:36:26;22.80;99.90
32865;DHT22;19219;44.500;11.188;2022-09-09T06:38:51;22.90;99.90
32865;DHT22;19219;44.500;11.188;2022-09-09T06:41:19;23.30;99.90
32865;DHT22;19219;44.500;11.188;2022-09-09T06:43:46;23.80;99.90
32865;DHT22;19219;44.500;11.188;2022-09-09T06:48:42;24.40;99.90
32865;DHT22;19219;44.500;11.188;2022-09-09T06:53:41;25.00;99.90
32865;DHT22;19219;44.500;11.188;2022-09-09T06:58:40;25.50;99.90
32865;DHT22;19219;44.500;11.188;2022-09-09T07:01:14;25.80;99.90
32865;DHT22;19219;44.500;11.188;2022-09-09T07:03:41;25.80;99.90
32865;DHT22;19219;44.500;11.188;2022-09-09T07:06:14;26.00;99.90
32865;DHT22;19219;44.500;11.188;2022-09-09T07:08:42;26.30;99.90
32865;DHT22;19219;44.500;11.188;2022-09-09T07:11:09;26.40;99.90
32865;DHT22;19219;44.500;11.188;2022-09-09T07:13:35;26.70;99.90
32865;DHT22;19219;44.500;11.188;2022-09-09T07:16:05;26.90;99.90
32865;DHT22;19219;44.500;11.188;2022-09-09T07:18:31;27.20;99.90
32865;DHT22;19219;44.500;11.188;2022-09-09T07:20:57;27.30;99.90
32865;DHT22;19219;44.500;11.188;2022-09-09T07:23:23;27.10;99.90
32865;DHT22;19219;44.500;11.188;2022-09-09T07:25:49;27.00;99.90
32865;DHT22;19219;44.500;11.188;2022-09-09T07:28:16;26.80;99.90
32865;DHT22;19219;44.500;11.188;2022-09-09T07:30:42;27.30;99.90
32865;DHT22;19219;44.500;11.188;2022-09-09T07:33:09;27.90;99.90
32865;DHT22;19219;44.500;11.188;2022-09-09T07:35:37;28.30;99.90
32865;DHT22;19219;44.500;11.188;2022-09-09T07:38:03;28.10;99.90
32865;DHT22;19219;44.500;11.188;2022-09-09T07:40:33;28.60;99.90
32865;DHT22;19219;44.500;11.188;2022-09-09T07:42:59;28.90;99.90
32865;DHT22;19219;44.500;11.188;2022-09-09T07:45:26;29.20;99.90
32865;DHT22;19219;44.500;11.188;2022-09-09T07:47:53;29.50;99.90
32865;DHT22;19219;44.500;11.188;2022-09-09T07:50:19;29.70;99.90
32865;DHT22;19219;44.500;11.188;2022-09-09T07:52:45;29.90;99.90
32865;DHT22;19219;44.500;11.188;2022-09-09T07:55:10;29.70;99.90
32865;DHT22;19219;44.500;11.188;2022-09-09T07:57:36;30.10;99.90
32865;DHT22;19219;44.500;11.188;2022-09-09T08:00:03;30.40;99.90
32865;DHT22;19219;44.500;11.188;2022-09-09T08:02:29;30.40;99.90
32865;DHT22;19219;44.500;11.188;2022-09-09T08:04:55;30.50;99.90
32865;DHT22;19219;44.500;11.188;2022-09-09T08:07:22;30.50;99.90
32865;DHT22;19219;44.500;11.188;2022-09-09T08:09:48;30.60;99.90
32865;DHT22;19219;44.500;11.188;2022-09-09T08:12:15;30.50;99.90
32865;DHT22;19219;44.500;11.188;2022-09-09T08:14:40;30.40;99.90
32865;DHT22;19219;44.500;11.188;2022-09-09T08:17:06;30.40;99.90
32865;DHT22;19219;44.500;11.188;2022-09-09T08:19:32;30.60;99.90
32865;DHT22;19219;44.500;11.188;2022-09-09T08:22:02;30.90;99.90
32865;DHT22;19219;44.500;11.188;2022-09-09T08:24:28;31.00;99.90
32865;DHT22;19219;44.500;11.188;2022-09-09T08:26:54;31.00;99.90
32865;DHT22;19219;44.500;11.188;2022-09-09T08:29:22;30.80;99.90
32865;DHT22;19219;44.500;11.188;2022-09-09T08:31:53;30.80;99.90
32865;DHT22;19219;44.500;11.188;2022-09-09T08:34:20;30.80;99.90
32865;DHT22;19219;44.500;11.188;2022-09-09T08:36:48;31.00;99.90
32865;DHT22;19219;44.500;11.188;2022-09-09T08:39:16;31.10;99.90
32865;DHT22;19219;44.500;11.188;2022-09-09T08:44:48;31.40;99.90
32865;DHT22;19219;44.500;11.188;2022-09-09T08:52:37;31.10;99.90
32865;DHT22;19219;44.500;11.188;2022-09-09T08:57:48;31.40;99.90
32865;DHT22;19219;44.500;11.188;2022-09-09T09:00:15;31.30;99.90
32865;DHT22;19219;44.500;11.188;2022-09-09T09:03:05;31.00;99.90
32865;DHT22;19219;44.500;11.188;2022-09-09T09:05:42;31.30;99.90
32865;DHT22;19219;44.500;11.188;2022-09-09T09:08:26;31.70;99.90
32865;DHT22;19219;44.500;11.188;2022-09-09T09:10:56;32.00;99.90
32865;DHT22;19219;44.500;11.188;2022-09-09T09:13:43;32.10;99.90
32865;DHT22;19219;44.500;11.188;2022-09-09T09:16:23;31.80;99.90
32865;DHT22;19219;44.500;11.188;2022-09-09T09:18:51;32.00;99.90
32865;DHT22;19219;44.500;11.188;2022-09-09T09:21:25;32.30;99.90
32865;DHT22;19219;44.500;11.188;2022-09-09T09:23:57;32.50;99.90
32865;DHT22;19219;44.500;11.188;2022-09-09T09:26:29;32.60;99.90
32865;DHT22;19219;44.500;11.188;2022-09-09T09:28:56;32.20;99.90
32865;DHT22;19219;44.500;11.188;2022-09-09T09:31:24;32.50;99.90
32865;DHT22;19219;44.500;11.188;2022-09-09T09:33:56;32.40;99.90
32865;DHT22;19219;44.500;11.188;2022-09-09T09:36:45;32.40;99.10
32865;DHT22;19219;44.500;11.188;2022-09-09T09:39:32;32.30;99.10
32865;DHT22;19219;44.500;11.188;2022-09-09T09:42:14;32.30;99.40
32865;DHT22;19219;44.500;11.188;2022-09-09T09:44:41;32.30;99.40
32865;DHT22;19219;44.500;11.188;2022-09-09T09:47:13;32.30;98.90
32865;DHT22;19219;44.500;11.188;2022-09-09T09:49:39;32.50;98.50
32865;DHT22;19219;44.500;11.188;2022-09-09T09:52:18;32.50;99.20
32865;DHT22;19219;44.500;11.188;2022-09-09T09:54:46;32.60;98.40
32865;DHT22;19219;44.500;11.188;2022-09-09T09:57:14;32.50;98.50
32865;DHT22;19219;44.500;11.188;2022-09-09T09:59:40;32.60;97.60
32865;DHT22;19219;44.500;11.188;2022-09-09T10:02:21;32.50;97.80
32865;DHT22;19219;44.500;11.188;2022-09-09T10:05:01;32.50;97.70
32865;DHT22;19219;44.500;11.188;2022-09-09T10:07:28;32.60;97.70
32865;DHT22;19219;44.500;11.188;2022-09-09T10:09:56;32.30;98.50
32865;DHT22;19219;44.500;11.188;2022-09-09T10:15:32;31.90;98.60
32865;DHT22;19219;44.500;11.188;2022-09-09T10:18:24;31.70;98.70
32865;DHT22;19219;44.500;11.188;2022-09-09T10:34:58;32.10;95.40
32865;DHT22;19219;44.500;11.188;2022-09-09T10:37:41;32.10;94.70
32865;DHT22;19219;44.500;11.188;2022-09-09T10:40:20;31.90;94.40
32865;DHT22;19219;44.500;11.188;2022-09-09T10:42:50;31.80;95.00
32865;DHT22;19219;44.500;11.188;2022-09-09T10:45:23;31.70;94.50
32865;DHT22;19219;44.500;11.188;2022-09-09T10:48:12;31.70;94.30
32865;DHT22;19219;44.500;11.188;2022-09-09T10:56:18;31.90;93.30
32865;DHT22;19219;44.500;11.188;2022-09-09T10:59:04;32.00;92.00
32865;DHT22;19219;44.500;11.188;2022-09-09T11:01:47;32.10;92.20
32865;DHT22;19219;44.500;11.188;2022-09-09T11:06:58;31.90;91.50
32865;DHT22;19219;44.500;11.188;2022-09-09T11:09:32;31.80;90.20
32865;DHT22;19219;44.500;11.188;2022-09-09T11:12:02;31.80;90.60
32865;DHT22;19219;44.500;11.188;2022-09-09T11:14:43;31.80;90.90
32865;DHT22;19219;44.500;11.188;2022-09-09T11:17:24;31.80;90.80
32865;DHT22;19219;44.500;11.188;2022-09-09T11:19:52;31.80;90.70
32865;DHT22;19219;44.500;11.188;2022-09-09T11:22:49;31.80;91.30
32865;DHT22;19219;44.500;11.188;2022-09-09T11:31:11;31.30;86.90
32865;DHT22;19219;44.500;11.188;2022-09-09T11:36:45;31.10;88.50
32865;DHT22;19219;44.500;11.188;2022-09-09T11:41:42;31.30;89.70
32865;DHT22;19219;44.500;11.188;2022-09-09T11:44:13;31.30;89.80
32865;DHT22;19219;44.500;11.188;2022-09-09T11:46:42;31.20;89.60
32865;DHT22;19219;44.500;11.188;2022-09-09T11:53:02;31.20;89.10
32865;DHT22;19219;44.500;11.188;2022-09-09T11:54:57;31.20;90.60
32865;DHT22;19219;44.500;11.188;2022-09-09T11:57:35;31.20;90.50
32865;DHT22;19219;44.500;11.188;2022-09-09T12:00:01;31.30;90.70
32865;DHT22;19219;44.500;11.188;2022-09-09T12:02:28;31.20;91.00
32865;DHT22;19219;44.500;11.188;2022-09-09T12:05:13;31.20;91.30
32865;DHT22;19219;44.500;11.188;2022-09-09T12:07:52;31.10;90.90
32865;DHT22;19219;44.500;11.188;2022-09-09T12:10:29;31.10;90.40
32865;DHT22;19219;44.500;11.188;2022-09-09T12:13:17;31.20;90.40
32865;DHT22;19219;44.500;11.188;2022-09-09T12:15:56;31.20;90.80
32865;DHT22;19219;44.500;11.188;2022-09-09T12:18:35;31.10;90.90
32865;DHT22;19219;44.500;11.188;2022-09-09T12:23:38;31.00;90.80
32865;DHT22;19219;44.500;11.188;2022-09-09T12:26:39;30.90;90.90
32865;DHT22;19219;44.500;11.188;2022-09-09T12:37:05;30.30;91.50
32865;DHT22;19219;44.500;11.188;2022-09-09T12:39:37;30.20;92.40
32865;DHT22;19219;44.500;11.188;2022-09-09T12:42:03;30.40;93.10
32865;DHT22;19219;44.500;11.188;2022-09-09T12:44:30;30.60;93.00
32865;DHT22;19219;44.500;11.188;2022-09-09T12:47:00;30.60;92.90
32865;DHT22;19219;44.500;11.188;2022-09-09T12:49:34;30.60;93.10
32865;DHT22;19219;44.500;11.188;2022-09-09T12:52:03;30.40;92.50
32865;DHT22;19219;44.500;11.188;2022-09-09T12:54:31;30.30;92.60
32865;DHT22;19219;44.500;11.188;2022-09-09T12:56:58;30.30;93.00
32865;DHT22;19219;44.500;11.188;2022-09-09T12:59:45;30.20;92.40
32865;DHT22;19219;44.500;11.188;2022-09-09T13:02:21;30.20;93.30
32865;DHT22;19219;44.500;11.188;2022-09-09T13:04:47;30.30;93.30
32865;DHT22;19219;44.500;11.188;2022-09-09T13:07:14;30.20;92.40
32865;DHT22;19219;44.500;11.188;2022-09-09T13:09:42;30.20;92.40
32865;DHT22;19219;44.500;11.188;2022-09-09T13:12:14;30.20;92.90
32865;DHT22;19219;44.500;11.188;2022-09-09T13:14:43;30.20;92.70
32865;DHT22;19219;44.500;11.188;2022-09-09T13:17:25;30.30;93.40
32865;DHT22;19219;44.500;11.188;2022-09-09T13:19:52;30.30;93.60
32865;DHT22;19219;44.500;11.188;2022-09-09T13:27:36;30.20;92.70
32865;DHT22;19219;44.500;11.188;2022-09-09T13:33:00;30.10;94.20
32865;DHT22;19219;44.500;11.188;2022-09-09T13:35:26;30.00;94.00
32865;DHT22;19219;44.500;11.188;2022-09-09T13:37:52;29.90;94.00
32865;DHT22;19219;44.500;11.188;2022-09-09T13:40:21;29.80;94.10
32865;DHT22;19219;44.500;11.188;2022-09-09T13:42:50;29.90;95.60
32865;DHT22;19219;44.500;11.188;2022-09-09T13:45:22;29.90;95.20
32865;DHT22;19219;44.500;11.188;2022-09-09T13:47:49;29.70;95.20
32865;DHT22;19219;44.500;11.188;2022-09-09T13:50:25;29.60;94.30
32865;DHT22;19219;44.500;11.188;2022-09-09T13:52:53;29.60;96.40
32865;DHT22;19219;44.500;11.188;2022-09-09T13:55:24;29.50;98.00
32865;DHT22;19219;44.500;11.188;2022-09-09T13:57:55;29.40;98.80
32865;DHT22;19219;44.500;11.188;2022-09-09T14:00:22;29.30;99.40
32865;DHT22;19219;44.500;11.188;2022-09-09T14:02:48;29.40;99.90
32865;DHT22;19219;44.500;11.188;2022-09-09T14:05:14;29.40;99.90
32865;DHT22;19219;44.500;11.188;2022-09-09T14:07:42;29.40;99.90
32865;DHT22;19219;44.500;11.188;2022-09-09T14:10:09;29.30;99.90
32865;DHT22;19219;44.500;11.188;2022-09-09T14:12:34;29.40;99.90
32865;DHT22;19219;44.500;11.188;2022-09-09T14:15:05;29.50;99.90
32865;DHT22;19219;44.500;11.188;2022-09-09T14:17:32;29.50;99.90
32865;DHT22;19219;44.500;11.188;2022-09-09T14:19:58;29.40;99.90
32865;DHT22;19219;44.500;11.188;2022-09-09T14:22:24;29.20;99.90
32865;DHT22;19219;44.500;11.188;2022-09-09T14:24:51;29.10;99.90
32865;DHT22;19219;44.500;11.188;2022-09-09T14:27:16;29.10;99.90
32865;DHT22;19219;44.500;11.188;2022-09-09T14:29:44;29.00;99.90
32865;DHT22;19219;44.500;11.188;2022-09-09T14:32:10;28.90;99.90
32865;DHT22;19219;44.500;11.188;2022-09-09T14:34:36;28.90;99.90
32865;DHT22;19219;44.500;11.188;2022-09-09T14:37:02;28.90;99.90
32865;DHT22;19219;44.500;11.188;2022-09-09T14:39:28;28.70;99.90
32865;DHT22;19219;44.500;11.188;2022-09-09T14:41:54;28.60;99.90
32865;DHT22;19219;44.500;11.188;2022-09-09T14:44:20;28.50;99.90
32865;DHT22;19219;44.500;11.188;2022-09-09T14:46:46;28.50;99.90
32865;DHT22;19219;44.500;11.188;2022-09-09T14:49:12;28.50;99.90
32865;DHT22;19219;44.500;11.188;2022-09-09T14:51:38;28.50;99.90
32865;DHT22;19219;44.500;11.188;2022-09-09T14:54:04;28.50;99.90
32865;DHT22;19219;44.500;11.188;2022-09-09T14:56:33;28.40;99.90
32865;DHT22;19219;44.500;11.188;2022-09-09T14:59:04;28.40;99.90
32865;DHT22;19219;44.500;11.188;2022-09-09T15:01:31;28.30;99.90
32865;DHT22;19219;44.500;11.188;2022-09-09T15:04:02;28.30;99.90
32865;DHT22;19219;44.500;11.188;2022-09-09T15:06:30;28.30;99.90
32865;DHT22;19219;44.500;11.188;2022-09-09T15:08:58;28.30;99.90
32865;DHT22;19219;44.500;11.188;2022-09-09T15:11:27;28.30;99.90
32865;DHT22;19219;44.500;11.188;2022-09-09T15:13:53;28.30;99.90
32865;DHT22;19219;44.500;11.188;2022-09-09T15:16:21;28.40;99.90
32865;DHT22;19219;44.500;11.188;2022-09-09T15:18:51;28.50;99.90
32865;DHT22;19219;44.500;11.188;2022-09-09T15:21:18;28.70;99.90
32865;DHT22;19219;44.500;11.188;2022-09-09T15:23:44;28.80;99.90
32865;DHT22;19219;44.500;11.188;2022-09-09T15:26:10;28.90;99.90
32865;DHT22;19219;44.500;11.188;2022-09-09T15:28:37;29.10;99.90
32865;DHT22;19219;44.500;11.188;2022-09-09T15:31:12;29.10;99.90
32865;DHT22;19219;44.500;11.188;2022-09-09T15:33:40;29.10;99.90
32865;DHT22;19219;44.500;11.188;2022-09-09T15:36:23;28.90;99.90
32865;DHT22;19219;44.500;11.188;2022-09-09T15:38:50;28.80;99.90
32865;DHT22;19219;44.500;11.188;2022-09-09T15:41:17;28.70;99.90
32865;DHT22;19219;44.500;11.188;2022-09-09T15:43:47;28.50;99.90
32865;DHT22;19219;44.500;11.188;2022-09-09T15:48:54;28.40;99.90
32865;DHT22;19219;44.500;11.188;2022-09-09T15:51:20;28.30;99.90
32865;DHT22;19219;44.500;11.188;2022-09-09T15:53:46;28.20;99.90
32865;DHT22;19219;44.500;11.188;2022-09-09T15:56:12;28.00;99.90
32865;DHT22;19219;44.500;11.188;2022-09-09T15:58:37;27.80;99.90
32865;DHT22;19219;44.500;11.188;2022-09-09T16:01:04;27.60;99.90
32865;DHT22;19219;44.500;11.188;2022-09-09T16:03:34;27.40;99.90
32865;DHT22;19219;44.500;11.188;2022-09-09T16:06:00;27.20;99.90
32865;DHT22;19219;44.500;11.188;2022-09-09T16:08:32;27.10;99.90
32865;DHT22;19219;44.500;11.188;2022-09-09T16:11:07;26.90;99.90
32865;DHT22;19219;44.500;11.188;2022-09-09T16:13:38;26.60;99.90
32865;DHT22;19219;44.500;11.188;2022-09-09T16:16:05;26.50;99.90
32865;DHT22;19219;44.500;11.188;2022-09-09T16:18:54;26.40;99.90
32865;DHT22;19219;44.500;11.188;2022-09-09T16:21:31;26.40;99.90
32865;DHT22;19219;44.500;11.188;2022-09-09T16:23:59;26.40;99.90
32865;DHT22;19219;44.500;11.188;2022-09-09T16:26:25;26.40;99.90
32865;DHT22;19219;44.500;11.188;2022-09-09T16:28:52;26.40;99.90
32865;DHT22;19219;44.500;11.188;2022-09-09T16:31:23;26.20;99.90
32865;DHT22;19219;44.500;11.188;2022-09-09T16:33:49;26.00;99.90
32865;DHT22;19219;44.500;11.188;2022-09-09T16:36:19;25.90;99.90
32865;DHT22;19219;44.500;11.188;2022-09-09T16:38:45;25.80;99.90
32865;DHT22;19219;44.500;11.188;2022-09-09T16:41:12;25.60;99.90
32865;DHT22;19219;44.500;11.188;2022-09-09T16:43:38;25.50;99.90
32865;DHT22;19219;44.500;11.188;2022-09-09T16:46:13;25.30;99.90
32865;DHT22;19219;44.500;11.188;2022-09-09T16:48:41;25.20;99.90
32865;DHT22;19219;44.500;11.188;2022-09-09T16:51:12;25.10;99.90
32865;DHT22;19219;44.500;11.188;2022-09-09T16:53:40;25.10;99.90
32865;DHT22;19219;44.500;11.188;2022-09-09T16:56:09;25.00;99.90
32865;DHT22;19219;44.500;11.188;2022-09-09T16:58:35;25.10;99.90
32865;DHT22;19219;44.500;11.188;2022-09-09T17:01:02;25.20;99.90
32865;DHT22;19219;44.500;11.188;2022-09-09T17:03:29;25.40;99.90
32865;DHT22;19219;44.500;11.188;2022-09-09T17:05:55;25.50;99.90
32865;DHT22;19219;44.500;11.188;2022-09-09T17:08:23;25.50;99.90
32865;DHT22;19219;44.500;11.188;2022-09-09T17:10:49;25.50;99.90
32865;DHT22;19219;44.500;11.188;2022-09-09T17:13:16;25.60;99.90
32865;DHT22;19219;44.500;11.188;2022-09-09T17:15:45;25.50;99.90
32865;DHT22;19219;44.500;11.188;2022-09-09T17:18:12;25.40;99.90
32865;DHT22;19219;44.500;11.188;2022-09-09T17:20:40;25.40;99.90
32865;DHT22;19219;44.500;11.188;2022-09-09T17:23:07;25.40;99.90
32865;DHT22;19219;44.500;11.188;2022-09-09T17:25:33;25.40;99.90